sensor_id;sensor_type;location;lat;lon;timestamp;P1;durP1;ratioP1;P2;durP2;ratioP2
38529;SDS011;24301;54.332;48.386;2023-04-24T02:13:01;6.55;;;4.03;;
38529;SDS011;24301;54.332;48.386;2023-04-24T02:15:27;6.38;;;3.75;;
38529;SDS011;24301;54.332;48.386;2023-04-24T02:17:54;5.70;;;4.10;;
38529;SDS011;24301;54.332;48.386;2023-04-24T02:20:20;5.68;;;3.60;;
38529;SDS011;24301;54.332;48.386;2023-04-24T02:22:45;7.00;;;3.70;;
38529;SDS011;24301;54.332;48.386;2023-04-24T02:25:11;4.65;;;3.20;;
38529;SDS011;24301;54.332;48.386;2023-04-24T02:27:37;4.10;;;3.17;;
38529;SDS011;24301;54.332;48.386;2023-04-24T02:30:05;5.57;;;3.03;;
38529;SDS011;24301;54.332;48.386;2023-04-24T02:32:32;5.82;;;3.30;;
38529;SDS011;24301;54.332;48.386;2023-04-24T02:34:59;5.60;;;3.50;;
38529;SDS011;24301;54.332;48.386;2023-04-24T02:37:25;4.03;;;3.08;;
38529;SDS011;24301;54.332;48.386;2023-04-24T02:39:51;10.18;;;3.95;;
38529;SDS011;24301;54.332;48.386;2023-04-24T02:42:17;3.20;;;2.90;;
38529;SDS011;24301;54.332;48.386;2023-04-24T02:44:43;5.40;;;3.35;;
38529;SDS011;24301;54.332;48.386;2023-04-24T02:47:09;6.47;;;3.38;;
38529;SDS011;24301;54.332;48.386;2023-04-24T02:49:35;5.68;;;3.33;;
38529;SDS011;24301;54.332;48.386;2023-04-24T02:52:01;6.47;;;3.17;;
38529;SDS011;24301;54.332;48.386;2023-04-24T02:54:26;5.43;;;3.47;;
38529;SDS011;24301;54.332;48.386;2023-04-24T02:56:52;6.53;;;3.47;;
38529;SDS011;24301;54.332;48.386;2023-04-24T02:59:18;6.40;;;3.08;;
38529;SDS011;24301;54.332;48.386;2023-04-24T03:01:44;7.03;;;3.53;;
38529;SDS011;24301;54.332;48.386;2023-04-24T03:04:10;9.43;;;3.72;;
38529;SDS011;24301;54.332;48.386;2023-04-24T03:06:37;4.75;;;3.35;;
38529;SDS011;24301;54.332;48.386;2023-04-24T03:09:02;5.68;;;3.45;;
38529;SDS011;24301;54.332;48.386;2023-04-24T03:11:29;4.50;;;3.22;;
38529;SDS011;24301;54.332;48.386;2023-04-24T03:13:55;6.63;;;4.20;;
38529;SDS011;24301;54.332;48.386;2023-04-24T03:16:20;5.45;;;3.30;;
38529;SDS011;24301;54.332;48.386;2023-04-24T03:18:46;6.18;;;3.25;;
38529;SDS011;24301;54.332;48.386;2023-04-24T03:21:13;5.57;;;3.33;;
38529;SDS011;24301;54.332;48.386;2023-04-24T03:23:40;6.18;;;3.78;;
38529;SDS011;24301;54.332;48.386;2023-04-24T03:26:07;6.65;;;3.65;;
38529;SDS011;24301;54.332;48.386;2023-04-24T03:28:36;7.70;;;3.58;;
38529;SDS011;24301;54.332;48.386;2023-04-24T03:31:03;4.80;;;3.45;;
38529;SDS011;24301;54.332;48.386;2023-04-24T03:33:33;7.93;;;3.60;;
38529;SDS011;24301;54.332;48.386;2023-04-24T03:36:01;9.85;;;3.83;;
38529;SDS011;24301;54.332;48.386;2023-04-24T03:38:35;6.45;;;3.40;;
38529;SDS011;24301;54.332;48.386;2023-04-24T03:41:20;7.32;;;3.58;;
38529;SDS011;24301;54.332;48.386;2023-04-24T03:43:54;12.35;;;4.18;;
38529;SDS011;24301;54.332;48.386;2023-04-24T03:46:20;7.10;;;4.28;;
38529;SDS011;24301;54.332;48.386;2023-04-24T03:48:57;8.60;;;3.90;;
38529;SDS011;24301;54.332;48.386;2023-04-24T03:51:36;7.93;;;3.83;;
38529;SDS011;24301;54.332;48.386;2023-04-24T03:54:14;8.73;;;4.13;;
38529;SDS011;24301;54.332;48.386;2023-04-24T03:56:40;10.43;;;4.15;;
38529;SDS011;24301;54.332;48.386;2023-04-24T03:59:06;8.65;;;4.53;;
38529;SDS011;24301;54.332;48.386;2023-04-24T04:01:34;10.65;;;4.22;;
38529;SDS011;24301;54.332;48.386;2023-04-24T04:04:08;8.60;;;3.83;;
38529;SDS011;24301;54.332;48.386;2023-04-24T04:06:35;8.48;;;3.95;;
38529;SDS011;24301;54.332;48.386;2023-04-24T04:09:02;10.60;;;3.72;;
38529;SDS011;24301;54.332;48.386;2023-04-24T04:11:29;13.05;;;3.78;;
38529;SDS011;24301;54.332;48.386;2023-04-24T04:16:47;14.10;;;4.82;;
38529;SDS011;24301;54.332;48.386;2023-04-24T04:19:13;8.88;;;4.45;;
38529;SDS011;24301;54.332;48.386;2023-04-24T04:21:39;11.07;;;5.18;;
38529;SDS011;24301;54.332;48.386;2023-04-24T04:24:21;7.80;;;5.25;;
38529;SDS011;24301;54.332;48.386;2023-04-24T04:26:48;8.35;;;4.80;;
38529;SDS011;24301;54.332;48.386;2023-04-24T04:29:33;11.95;;;4.93;;
38529;SDS011;24301;54.332;48.386;2023-04-24T04:32:04;8.88;;;4.55;;
38529;SDS011;24301;54.332;48.386;2023-04-24T04:34:30;12.68;;;5.15;;
38529;SDS011;24301;54.332;48.386;2023-04-24T04:36:57;13.90;;;4.40;;
38529;SDS011;24301;54.332;48.386;2023-04-24T04:39:52;10.38;;;4.80;;
38529;SDS011;24301;54.332;48.386;2023-04-24T04:42:24;11.05;;;4.72;;
38529;SDS011;24301;54.332;48.386;2023-04-24T04:44:53;11.77;;;5.32;;
38529;SDS011;24301;54.332;48.386;2023-04-24T04:47:26;10.02;;;4.78;;
38529;SDS011;24301;54.332;48.386;2023-04-24T04:49:54;9.25;;;3.97;;
38529;SDS011;24301;54.332;48.386;2023-04-24T04:52:23;8.52;;;4.20;;
38529;SDS011;24301;54.332;48.386;2023-04-24T04:55:00;7.82;;;3.78;;
38529;SDS011;24301;54.332;48.386;2023-04-24T04:57:41;7.50;;;3.53;;
38529;SDS011;24301;54.332;48.386;2023-04-24T05:00:08;7.38;;;4.13;;
38529;SDS011;24301;54.332;48.386;2023-04-24T05:02:44;5.95;;;2.72;;
38529;SDS011;24301;54.332;48.386;2023-04-24T05:05:10;7.88;;;3.38;;
38529;SDS011;24301;54.332;48.386;2023-04-24T05:07:36;12.82;;;3.30;;
38529;SDS011;24301;54.332;48.386;2023-04-24T05:10:03;7.82;;;2.80;;
38529;SDS011;24301;54.332;48.386;2023-04-24T05:12:30;5.53;;;3.42;;
38529;SDS011;24301;54.332;48.386;2023-04-24T05:14:57;9.25;;;3.92;;
38529;SDS011;24301;54.332;48.386;2023-04-24T05:17:24;6.43;;;3.42;;
38529;SDS011;24301;54.332;48.386;2023-04-24T05:19:53;9.52;;;3.22;;
38529;SDS011;24301;54.332;48.386;2023-04-24T05:22:19;8.32;;;2.97;;
38529;SDS011;24301;54.332;48.386;2023-04-24T05:24:50;8.70;;;3.38;;
38529;SDS011;24301;54.332;48.386;2023-04-24T05:27:33;5.75;;;3.08;;
38529;SDS011;24301;54.332;48.386;2023-04-24T05:30:01;9.13;;;3.97;;
38529;SDS011;24301;54.332;48.386;2023-04-24T05:32:29;7.28;;;3.40;;
38529;SDS011;24301;54.332;48.386;2023-04-24T05:34:55;13.77;;;4.50;;
38529;SDS011;24301;54.332;48.386;2023-04-24T05:37:21;7.47;;;3.58;;
38529;SDS011;24301;54.332;48.386;2023-04-24T05:39:47;8.30;;;4.13;;
38529;SDS011;24301;54.332;48.386;2023-04-24T05:42:13;10.40;;;4.05;;
38529;SDS011;24301;54.332;48.386;2023-04-24T05:44:39;13.85;;;4.65;;
38529;SDS011;24301;54.332;48.386;2023-04-24T05:47:05;11.43;;;5.25;;
38529;SDS011;24301;54.332;48.386;2023-04-24T05:49:31;8.00;;;4.35;;
38529;SDS011;24301;54.332;48.386;2023-04-24T05:51:57;13.02;;;4.32;;
38529;SDS011;24301;54.332;48.386;2023-04-24T05:54:23;13.80;;;4.53;;
38529;SDS011;24301;54.332;48.386;2023-04-24T05:56:49;10.38;;;4.25;;
38529;SDS011;24301;54.332;48.386;2023-04-24T05:59:24;13.40;;;5.07;;
38529;SDS011;24301;54.332;48.386;2023-04-24T06:01:51;12.13;;;4.60;;
38529;SDS011;24301;54.332;48.386;2023-04-24T06:04:19;11.68;;;5.10;;
38529;SDS011;24301;54.332;48.386;2023-04-24T06:06:45;8.07;;;4.05;;
38529;SDS011;24301;54.332;48.386;2023-04-24T06:09:11;7.15;;;3.33;;
38529;SDS011;24301;54.332;48.386;2023-04-24T06:11:38;7.70;;;3.58;;
38529;SDS011;24301;54.332;48.386;2023-04-24T06:14:05;8.95;;;3.97;;
38529;SDS011;24301;54.332;48.386;2023-04-24T06:19:12;4.38;;;2.83;;
38529;SDS011;24301;54.332;48.386;2023-04-24T06:21:38;5.05;;;2.40;;
38529;SDS011;24301;54.332;48.386;2023-04-24T06:24:04;2.80;;;2.33;;
38529;SDS011;24301;54.332;48.386;2023-04-24T06:26:30;6.00;;;2.80;;
38529;SDS011;24301;54.332;48.386;2023-04-24T06:28:56;5.95;;;3.05;;
38529;SDS011;24301;54.332;48.386;2023-04-24T06:31:24;13.40;;;2.50;;
38529;SDS011;24301;54.332;48.386;2023-04-24T06:33:50;6.55;;;2.25;;
38529;SDS011;24301;54.332;48.386;2023-04-24T06:36:16;4.75;;;2.17;;
38529;SDS011;24301;54.332;48.386;2023-04-24T06:38:42;2.33;;;1.80;;
38529;SDS011;24301;54.332;48.386;2023-04-24T06:41:09;4.70;;;2.08;;
38529;SDS011;24301;54.332;48.386;2023-04-24T06:43:35;1.95;;;1.60;;
38529;SDS011;24301;54.332;48.386;2023-04-24T06:46:01;3.88;;;1.95;;
38529;SDS011;24301;54.332;48.386;2023-04-24T06:48:28;5.05;;;1.55;;
38529;SDS011;24301;54.332;48.386;2023-04-24T06:50:54;5.72;;;1.58;;
38529;SDS011;24301;54.332;48.386;2023-04-24T06:53:20;4.07;;;1.58;;
38529;SDS011;24301;54.332;48.386;2023-04-24T06:55:46;2.85;;;1.50;;
38529;SDS011;24301;54.332;48.386;2023-04-24T06:58:12;3.85;;;1.50;;
38529;SDS011;24301;54.332;48.386;2023-04-24T07:00:41;3.17;;;1.70;;
38529;SDS011;24301;54.332;48.386;2023-04-24T07:03:07;2.88;;;1.35;;
38529;SDS011;24301;54.332;48.386;2023-04-24T07:05:32;1.85;;;1.30;;
38529;SDS011;24301;54.332;48.386;2023-04-24T07:08:03;3.35;;;1.65;;
38529;SDS011;24301;54.332;48.386;2023-04-24T07:10:29;1.70;;;1.60;;
38529;SDS011;24301;54.332;48.386;2023-04-24T07:12:55;2.88;;;1.40;;
38529;SDS011;24301;54.332;48.386;2023-04-24T07:15:22;3.15;;;1.73;;
38529;SDS011;24301;54.332;48.386;2023-04-24T07:17:49;3.72;;;1.67;;
38529;SDS011;24301;54.332;48.386;2023-04-24T07:20:15;2.78;;;1.83;;
38529;SDS011;24301;54.332;48.386;2023-04-24T07:22:41;3.22;;;1.30;;
38529;SDS011;24301;54.332;48.386;2023-04-24T07:25:07;3.22;;;1.45;;
38529;SDS011;24301;54.332;48.386;2023-04-24T07:27:34;3.20;;;1.60;;
38529;SDS011;24301;54.332;48.386;2023-04-24T07:30:02;4.10;;;1.65;;
38529;SDS011;24301;54.332;48.386;2023-04-24T07:32:31;4.47;;;1.60;;
38529;SDS011;24301;54.332;48.386;2023-04-24T07:34:57;1.77;;;1.48;;
38529;SDS011;24301;54.332;48.386;2023-04-24T07:37:23;4.40;;;1.58;;
38529;SDS011;24301;54.332;48.386;2023-04-24T07:39:50;3.35;;;1.40;;
38529;SDS011;24301;54.332;48.386;2023-04-24T07:42:16;2.75;;;1.63;;
38529;SDS011;24301;54.332;48.386;2023-04-24T07:44:42;4.13;;;1.70;;
38529;SDS011;24301;54.332;48.386;2023-04-24T07:47:08;2.63;;;1.30;;
38529;SDS011;24301;54.332;48.386;2023-04-24T07:49:34;2.05;;;1.65;;
38529;SDS011;24301;54.332;48.386;2023-04-24T07:52:00;2.65;;;1.38;;
38529;SDS011;24301;54.332;48.386;2023-04-24T07:54:28;4.25;;;1.58;;
38529;SDS011;24301;54.332;48.386;2023-04-24T07:56:55;4.22;;;1.52;;
38529;SDS011;24301;54.332;48.386;2023-04-24T07:59:21;3.13;;;1.40;;
38529;SDS011;24301;54.332;48.386;2023-04-24T08:01:47;3.53;;;2.40;;
38529;SDS011;24301;54.332;48.386;2023-04-24T08:04:13;4.60;;;1.90;;
38529;SDS011;24301;54.332;48.386;2023-04-24T08:06:39;5.53;;;1.88;;
38529;SDS011;24301;54.332;48.386;2023-04-24T08:09:06;6.78;;;1.77;;
38529;SDS011;24301;54.332;48.386;2023-04-24T08:11:32;2.30;;;1.80;;
38529;SDS011;24301;54.332;48.386;2023-04-24T08:13:58;1.45;;;1.20;;
38529;SDS011;24301;54.332;48.386;2023-04-24T08:16:24;1.75;;;1.42;;
38529;SDS011;24301;54.332;48.386;2023-04-24T08:18:50;3.10;;;1.75;;
38529;SDS011;24301;54.332;48.386;2023-04-24T08:21:16;3.38;;;1.80;;
38529;SDS011;24301;54.332;48.386;2023-04-24T08:23:44;3.08;;;1.75;;
38529;SDS011;24301;54.332;48.386;2023-04-24T08:26:11;5.60;;;1.75;;
38529;SDS011;24301;54.332;48.386;2023-04-24T08:28:38;4.40;;;1.67;;
38529;SDS011;24301;54.332;48.386;2023-04-24T08:31:04;2.08;;;1.50;;
38529;SDS011;24301;54.332;48.386;2023-04-24T08:33:30;4.55;;;2.10;;
38529;SDS011;24301;54.332;48.386;2023-04-24T08:36:03;3.63;;;2.25;;
38529;SDS011;24301;54.332;48.386;2023-04-24T08:38:30;6.90;;;1.92;;
38529;SDS011;24301;54.332;48.386;2023-04-24T08:40:56;3.33;;;1.63;;
38529;SDS011;24301;54.332;48.386;2023-04-24T08:43:23;4.03;;;1.80;;
38529;SDS011;24301;54.332;48.386;2023-04-24T08:45:51;6.10;;;3.00;;
38529;SDS011;24301;54.332;48.386;2023-04-24T08:48:18;2.80;;;2.03;;
38529;SDS011;24301;54.332;48.386;2023-04-24T08:50:44;4.22;;;2.40;;
38529;SDS011;24301;54.332;48.386;2023-04-24T08:53:10;7.53;;;4.45;;
38529;SDS011;24301;54.332;48.386;2023-04-24T08:55:37;3.60;;;1.70;;
38529;SDS011;24301;54.332;48.386;2023-04-24T08:58:03;4.03;;;1.83;;
38529;SDS011;24301;54.332;48.386;2023-04-24T09:00:30;6.15;;;2.30;;
38529;SDS011;24301;54.332;48.386;2023-04-24T09:02:57;3.85;;;1.63;;
38529;SDS011;24301;54.332;48.386;2023-04-24T09:05:23;2.88;;;1.95;;
38529;SDS011;24301;54.332;48.386;2023-04-24T09:07:55;3.25;;;1.45;;
38529;SDS011;24301;54.332;48.386;2023-04-24T09:10:23;8.45;;;2.10;;
38529;SDS011;24301;54.332;48.386;2023-04-24T09:12:51;4.10;;;1.70;;
38529;SDS011;24301;54.332;48.386;2023-04-24T09:15:20;4.47;;;2.28;;
38529;SDS011;24301;54.332;48.386;2023-04-24T09:17:46;4.63;;;2.00;;
38529;SDS011;24301;54.332;48.386;2023-04-24T09:20:13;2.75;;;1.50;;
38529;SDS011;24301;54.332;48.386;2023-04-24T09:22:39;2.53;;;1.77;;
38529;SDS011;24301;54.332;48.386;2023-04-24T09:25:06;3.75;;;1.70;;
38529;SDS011;24301;54.332;48.386;2023-04-24T09:27:33;3.05;;;1.50;;
38529;SDS011;24301;54.332;48.386;2023-04-24T09:29:59;3.08;;;1.63;;
38529;SDS011;24301;54.332;48.386;2023-04-24T09:32:33;1.75;;;1.38;;
38529;SDS011;24301;54.332;48.386;2023-04-24T09:35:10;2.03;;;1.50;;
38529;SDS011;24301;54.332;48.386;2023-04-24T09:37:47;3.42;;;1.50;;
38529;SDS011;24301;54.332;48.386;2023-04-24T09:40:15;2.75;;;1.40;;
38529;SDS011;24301;54.332;48.386;2023-04-24T09:42:45;2.22;;;1.60;;
38529;SDS011;24301;54.332;48.386;2023-04-24T09:45:12;2.33;;;1.30;;
38529;SDS011;24301;54.332;48.386;2023-04-24T09:47:39;3.97;;;2.00;;
38529;SDS011;24301;54.332;48.386;2023-04-24T09:50:15;6.20;;;1.70;;
38529;SDS011;24301;54.332;48.386;2023-04-24T09:55:16;2.53;;;1.80;;
38529;SDS011;24301;54.332;48.386;2023-04-24T09:57:53;3.40;;;1.70;;
38529;SDS011;24301;54.332;48.386;2023-04-24T10:00:24;1.67;;;1.55;;
38529;SDS011;24301;54.332;48.386;2023-04-24T10:02:58;3.95;;;1.52;;
38529;SDS011;24301;54.332;48.386;2023-04-24T10:05:32;2.17;;;1.73;;
38529;SDS011;24301;54.332;48.386;2023-04-24T10:08:09;3.10;;;1.60;;
38529;SDS011;24301;54.332;48.386;2023-04-24T10:10:41;3.92;;;2.15;;
38529;SDS011;24301;54.332;48.386;2023-04-24T10:13:09;2.17;;;1.65;;
38529;SDS011;24301;54.332;48.386;2023-04-24T10:15:36;3.45;;;1.60;;
38529;SDS011;24301;54.332;48.386;2023-04-24T10:18:04;4.00;;;1.40;;
38529;SDS011;24301;54.332;48.386;2023-04-24T10:20:32;6.93;;;1.70;;
38529;SDS011;24301;54.332;48.386;2023-04-24T10:22:59;2.58;;;1.65;;
38529;SDS011;24301;54.332;48.386;2023-04-24T10:25:29;2.45;;;1.63;;
38529;SDS011;24301;54.332;48.386;2023-04-24T10:27:57;5.47;;;1.92;;
38529;SDS011;24301;54.332;48.386;2023-04-24T10:30:27;2.40;;;1.90;;
38529;SDS011;24301;54.332;48.386;2023-04-24T10:32:54;3.92;;;1.85;;
38529;SDS011;24301;54.332;48.386;2023-04-24T10:35:20;2.53;;;2.00;;
38529;SDS011;24301;54.332;48.386;2023-04-24T10:38:09;6.57;;;2.30;;
38529;SDS011;24301;54.332;48.386;2023-04-24T10:40:37;3.70;;;1.88;;
38529;SDS011;24301;54.332;48.386;2023-04-24T10:43:04;4.20;;;1.77;;
38529;SDS011;24301;54.332;48.386;2023-04-24T10:45:33;4.47;;;1.95;;
38529;SDS011;24301;54.332;48.386;2023-04-24T10:48:04;4.32;;;2.08;;
38529;SDS011;24301;54.332;48.386;2023-04-24T10:50:43;2.20;;;1.40;;
38529;SDS011;24301;54.332;48.386;2023-04-24T10:53:17;7.07;;;2.03;;
38529;SDS011;24301;54.332;48.386;2023-04-24T10:58:14;2.20;;;1.73;;
38529;SDS011;24301;54.332;48.386;2023-04-24T11:00:42;3.42;;;1.65;;
38529;SDS011;24301;54.332;48.386;2023-04-24T11:03:25;4.00;;;1.90;;
38529;SDS011;24301;54.332;48.386;2023-04-24T11:05:55;1.75;;;1.60;;
38529;SDS011;24301;54.332;48.386;2023-04-24T11:08:24;3.13;;;1.63;;
38529;SDS011;24301;54.332;48.386;2023-04-24T11:13:27;3.35;;;1.83;;
38529;SDS011;24301;54.332;48.386;2023-04-24T11:16:20;7.95;;;2.17;;
38529;SDS011;24301;54.332;48.386;2023-04-24T11:19:37;3.50;;;1.88;;
38529;SDS011;24301;54.332;48.386;2023-04-24T11:21:46;5.60;;;2.13;;
38529;SDS011;24301;54.332;48.386;2023-04-24T11:24:26;4.13;;;2.30;;
38529;SDS011;24301;54.332;48.386;2023-04-24T11:27:06;4.15;;;2.22;;
38529;SDS011;24301;54.332;48.386;2023-04-24T11:29:40;6.60;;;2.00;;
38529;SDS011;24301;54.332;48.386;2023-04-24T11:32:29;4.63;;;2.10;;
38529;SDS011;24301;54.332;48.386;2023-04-24T11:34:59;6.50;;;2.75;;
38529;SDS011;24301;54.332;48.386;2023-04-24T11:40:05;6.63;;;1.60;;
38529;SDS011;24301;54.332;48.386;2023-04-24T11:42:45;6.03;;;2.10;;
38529;SDS011;24301;54.332;48.386;2023-04-24T11:45:15;3.65;;;1.75;;
38529;SDS011;24301;54.332;48.386;2023-04-24T11:47:48;5.28;;;2.25;;
38529;SDS011;24301;54.332;48.386;2023-04-24T11:50:15;6.38;;;1.92;;
38529;SDS011;24301;54.332;48.386;2023-04-24T11:52:43;2.05;;;1.80;;
38529;SDS011;24301;54.332;48.386;2023-04-24T11:57:43;5.38;;;1.88;;
38529;SDS011;24301;54.332;48.386;2023-04-24T12:02:43;2.63;;;1.80;;
38529;SDS011;24301;54.332;48.386;2023-04-24T12:08:03;4.35;;;2.08;;
38529;SDS011;24301;54.332;48.386;2023-04-24T12:10:30;5.28;;;2.63;;
38529;SDS011;24301;54.332;48.386;2023-04-24T12:12:58;4.07;;;2.50;;
38529;SDS011;24301;54.332;48.386;2023-04-24T12:15:25;2.95;;;1.80;;
38529;SDS011;24301;54.332;48.386;2023-04-24T12:17:52;4.25;;;1.83;;
38529;SDS011;24301;54.332;48.386;2023-04-24T12:20:30;2.08;;;1.50;;
38529;SDS011;24301;54.332;48.386;2023-04-24T12:22:59;3.65;;;1.80;;
38529;SDS011;24301;54.332;48.386;2023-04-24T12:25:27;4.97;;;2.00;;
38529;SDS011;24301;54.332;48.386;2023-04-24T12:27:54;7.00;;;1.83;;
38529;SDS011;24301;54.332;48.386;2023-04-24T12:30:40;3.88;;;1.67;;
38529;SDS011;24301;54.332;48.386;2023-04-24T12:33:06;6.78;;;2.22;;
38529;SDS011;24301;54.332;48.386;2023-04-24T12:35:32;4.45;;;2.00;;
38529;SDS011;24301;54.332;48.386;2023-04-24T12:38:13;4.95;;;2.20;;
38529;SDS011;24301;54.332;48.386;2023-04-24T12:40:41;4.97;;;2.20;;
38529;SDS011;24301;54.332;48.386;2023-04-24T12:43:14;5.95;;;1.85;;
38529;SDS011;24301;54.332;48.386;2023-04-24T12:45:42;5.95;;;2.60;;
38529;SDS011;24301;54.332;48.386;2023-04-24T12:48:08;3.50;;;1.77;;
38529;SDS011;24301;54.332;48.386;2023-04-24T12:50:37;4.55;;;2.10;;
38529;SDS011;24301;54.332;48.386;2023-04-24T12:53:06;3.60;;;1.90;;
38529;SDS011;24301;54.332;48.386;2023-04-24T12:55:34;4.10;;;1.83;;
38529;SDS011;24301;54.332;48.386;2023-04-24T12:58:01;4.93;;;2.40;;
38529;SDS011;24301;54.332;48.386;2023-04-24T13:00:30;3.50;;;1.80;;
38529;SDS011;24301;54.332;48.386;2023-04-24T13:02:56;6.38;;;2.10;;
38529;SDS011;24301;54.332;48.386;2023-04-24T13:05:22;5.32;;;2.03;;
38529;SDS011;24301;54.332;48.386;2023-04-24T13:07:48;2.28;;;1.63;;
38529;SDS011;24301;54.332;48.386;2023-04-24T13:10:14;4.15;;;2.13;;
38529;SDS011;24301;54.332;48.386;2023-04-24T13:12:40;3.63;;;2.03;;
38529;SDS011;24301;54.332;48.386;2023-04-24T13:15:10;4.80;;;2.08;;
38529;SDS011;24301;54.332;48.386;2023-04-24T13:17:37;6.45;;;2.40;;
38529;SDS011;24301;54.332;48.386;2023-04-24T13:20:03;3.03;;;1.98;;
38529;SDS011;24301;54.332;48.386;2023-04-24T13:22:30;5.85;;;2.80;;
38529;SDS011;24301;54.332;48.386;2023-04-24T13:24:56;4.18;;;2.35;;
38529;SDS011;24301;54.332;48.386;2023-04-24T13:27:22;5.40;;;1.90;;
38529;SDS011;24301;54.332;48.386;2023-04-24T13:29:48;5.57;;;1.98;;
38529;SDS011;24301;54.332;48.386;2023-04-24T13:32:14;3.90;;;2.33;;
38529;SDS011;24301;54.332;48.386;2023-04-24T13:34:40;4.13;;;1.70;;
38529;SDS011;24301;54.332;48.386;2023-04-24T13:37:06;6.93;;;2.80;;
38529;SDS011;24301;54.332;48.386;2023-04-24T13:39:33;6.22;;;2.10;;
38529;SDS011;24301;54.332;48.386;2023-04-24T13:41:59;4.47;;;2.00;;
38529;SDS011;24301;54.332;48.386;2023-04-24T13:44:26;2.85;;;1.75;;
38529;SDS011;24301;54.332;48.386;2023-04-24T13:46:53;2.97;;;1.35;;
38529;SDS011;24301;54.332;48.386;2023-04-24T13:49:22;3.67;;;2.40;;
38529;SDS011;24301;54.332;48.386;2023-04-24T13:51:52;5.90;;;2.70;;
38529;SDS011;24301;54.332;48.386;2023-04-24T13:54:19;5.10;;;2.47;;
38529;SDS011;24301;54.332;48.386;2023-04-24T13:56:46;4.40;;;2.50;;
38529;SDS011;24301;54.332;48.386;2023-04-24T13:59:12;3.47;;;1.77;;
38529;SDS011;24301;54.332;48.386;2023-04-24T14:01:38;5.80;;;2.40;;
38529;SDS011;24301;54.332;48.386;2023-04-24T14:04:04;2.85;;;2.00;;
38529;SDS011;24301;54.332;48.386;2023-04-24T14:06:30;7.90;;;2.70;;
38529;SDS011;24301;54.332;48.386;2023-04-24T14:08:56;4.85;;;2.35;;
38529;SDS011;24301;54.332;48.386;2023-04-24T14:11:22;7.55;;;2.72;;
38529;SDS011;24301;54.332;48.386;2023-04-24T14:13:48;4.53;;;2.88;;
38529;SDS011;24301;54.332;48.386;2023-04-24T14:16:15;2.53;;;2.13;;
38529;SDS011;24301;54.332;48.386;2023-04-24T14:18:41;4.32;;;1.83;;
38529;SDS011;24301;54.332;48.386;2023-04-24T14:21:07;5.50;;;2.97;;
38529;SDS011;24301;54.332;48.386;2023-04-24T14:23:33;4.05;;;3.08;;
38529;SDS011;24301;54.332;48.386;2023-04-24T14:25:59;3.17;;;2.70;;
38529;SDS011;24301;54.332;48.386;2023-04-24T14:28:25;4.75;;;1.95;;
38529;SDS011;24301;54.332;48.386;2023-04-24T14:30:52;3.40;;;2.20;;
38529;SDS011;24301;54.332;48.386;2023-04-24T14:33:19;3.85;;;2.50;;
38529;SDS011;24301;54.332;48.386;2023-04-24T14:35:45;4.78;;;2.42;;
38529;SDS011;24301;54.332;48.386;2023-04-24T14:38:11;6.65;;;2.20;;
38529;SDS011;24301;54.332;48.386;2023-04-24T14:40:38;4.38;;;2.03;;
38529;SDS011;24301;54.332;48.386;2023-04-24T14:43:04;5.65;;;3.05;;
38529;SDS011;24301;54.332;48.386;2023-04-24T14:45:30;4.05;;;2.40;;
38529;SDS011;24301;54.332;48.386;2023-04-24T14:47:57;4.57;;;2.17;;
38529;SDS011;24301;54.332;48.386;2023-04-24T14:50:23;5.45;;;3.50;;
38529;SDS011;24301;54.332;48.386;2023-04-24T14:52:54;5.38;;;2.53;;
38529;SDS011;24301;54.332;48.386;2023-04-24T14:55:23;5.40;;;2.92;;
38529;SDS011;24301;54.332;48.386;2023-04-24T15:01:08;8.75;;;2.40;;
38529;SDS011;24301;54.332;48.386;2023-04-24T15:03:34;7.07;;;3.35;;
38529;SDS011;24301;54.332;48.386;2023-04-24T15:06:00;7.47;;;2.13;;
38529;SDS011;24301;54.332;48.386;2023-04-24T15:08:27;2.70;;;2.15;;
38529;SDS011;24301;54.332;48.386;2023-04-24T15:10:53;5.88;;;2.47;;
38529;SDS011;24301;54.332;48.386;2023-04-24T15:16:10;8.90;;;2.92;;
38529;SDS011;24301;54.332;48.386;2023-04-24T15:18:36;3.35;;;2.20;;
38529;SDS011;24301;54.332;48.386;2023-04-24T15:21:02;5.65;;;2.40;;
38529;SDS011;24301;54.332;48.386;2023-04-24T15:23:29;6.95;;;2.65;;
38529;SDS011;24301;54.332;48.386;2023-04-24T15:26:50;5.95;;;2.25;;
38529;SDS011;24301;54.332;48.386;2023-04-24T15:29:29;4.30;;;2.35;;
38529;SDS011;24301;54.332;48.386;2023-04-24T15:31:55;4.95;;;2.92;;
38529;SDS011;24301;54.332;48.386;2023-04-24T15:34:21;11.75;;;2.60;;
38529;SDS011;24301;54.332;48.386;2023-04-24T15:36:47;9.88;;;3.15;;
38529;SDS011;24301;54.332;48.386;2023-04-24T15:39:16;4.85;;;2.38;;
38529;SDS011;24301;54.332;48.386;2023-04-24T15:41:42;3.35;;;1.85;;
38529;SDS011;24301;54.332;48.386;2023-04-24T15:44:08;4.95;;;2.30;;
38529;SDS011;24301;54.332;48.386;2023-04-24T15:46:34;7.15;;;1.95;;
38529;SDS011;24301;54.332;48.386;2023-04-24T15:49:01;3.78;;;2.00;;
38529;SDS011;24301;54.332;48.386;2023-04-24T15:51:27;3.70;;;1.85;;
38529;SDS011;24301;54.332;48.386;2023-04-24T15:53:53;4.03;;;2.25;;
38529;SDS011;24301;54.332;48.386;2023-04-24T15:56:19;4.65;;;2.28;;
38529;SDS011;24301;54.332;48.386;2023-04-24T15:58:45;3.50;;;2.20;;
38529;SDS011;24301;54.332;48.386;2023-04-24T16:01:11;3.38;;;2.30;;
38529;SDS011;24301;54.332;48.386;2023-04-24T16:03:37;5.18;;;2.30;;
38529;SDS011;24301;54.332;48.386;2023-04-24T16:06:03;2.20;;;1.92;;
38529;SDS011;24301;54.332;48.386;2023-04-24T16:08:30;4.75;;;2.78;;
38529;SDS011;24301;54.332;48.386;2023-04-24T16:10:56;4.32;;;2.40;;
38529;SDS011;24301;54.332;48.386;2023-04-24T16:13:22;4.50;;;2.28;;
38529;SDS011;24301;54.332;48.386;2023-04-24T16:15:48;5.45;;;2.30;;
38529;SDS011;24301;54.332;48.386;2023-04-24T16:18:15;4.07;;;2.30;;
38529;SDS011;24301;54.332;48.386;2023-04-24T16:20:42;2.92;;;1.83;;
38529;SDS011;24301;54.332;48.386;2023-04-24T16:23:08;5.13;;;2.42;;
38529;SDS011;24301;54.332;48.386;2023-04-24T16:25:34;4.20;;;2.22;;
38529;SDS011;24301;54.332;48.386;2023-04-24T16:28:00;3.25;;;2.92;;
38529;SDS011;24301;54.332;48.386;2023-04-24T16:30:26;7.38;;;2.83;;
38529;SDS011;24301;54.332;48.386;2023-04-24T16:32:52;4.50;;;2.00;;
38529;SDS011;24301;54.332;48.386;2023-04-24T16:35:18;4.07;;;2.45;;
38529;SDS011;24301;54.332;48.386;2023-04-24T16:37:45;4.25;;;2.33;;
38529;SDS011;24301;54.332;48.386;2023-04-24T16:40:11;4.47;;;2.28;;
38529;SDS011;24301;54.332;48.386;2023-04-24T16:42:38;3.72;;;2.15;;
38529;SDS011;24301;54.332;48.386;2023-04-24T16:45:04;4.60;;;2.63;;
38529;SDS011;24301;54.332;48.386;2023-04-24T16:47:33;2.20;;;1.83;;
38529;SDS011;24301;54.332;48.386;2023-04-24T16:50:01;4.10;;;1.70;;
38529;SDS011;24301;54.332;48.386;2023-04-24T16:52:30;5.78;;;1.83;;
38529;SDS011;24301;54.332;48.386;2023-04-24T16:54:56;4.03;;;2.03;;
38529;SDS011;24301;54.332;48.386;2023-04-24T16:57:23;4.32;;;2.13;;
38529;SDS011;24301;54.332;48.386;2023-04-24T16:59:49;5.18;;;2.38;;
38529;SDS011;24301;54.332;48.386;2023-04-24T17:02:15;7.45;;;1.85;;
38529;SDS011;24301;54.332;48.386;2023-04-24T17:04:41;3.40;;;1.70;;
38529;SDS011;24301;54.332;48.386;2023-04-24T17:07:07;3.83;;;1.90;;
38529;SDS011;24301;54.332;48.386;2023-04-24T17:09:33;3.17;;;1.73;;
38529;SDS011;24301;54.332;48.386;2023-04-24T17:21:45;4.88;;;1.63;;
38529;SDS011;24301;54.332;48.386;2023-04-24T17:25:12;5.00;;;1.73;;
38529;SDS011;24301;54.332;48.386;2023-04-24T17:27:44;4.03;;;1.83;;
38529;SDS011;24301;54.332;48.386;2023-04-24T17:30:26;2.85;;;2.10;;
38529;SDS011;24301;54.332;48.386;2023-04-24T17:35:45;4.18;;;2.10;;